Time;durP1;ratioP1;P1;durP2;ratioP2;P2;SDS_P1;SDS_P2;PMS_P1;PMS_P2;Temp;Humidity;BMP_temperature;BMP_pressure;BME280_temperature;BME280_humidity;BME280_pressure;Samples;Min_cycle;Max_cycle;Signal;HPM_P1;HPM_P2
2022/01/01 00:02:05;;;;;;;31.17;18.52;;;;;;;11.23;100.00;100681.00;5014659;28;20021;-74
2022/01/01 00:04:31;;;;;;;32.95;20.60;;;;;;;11.28;100.00;100687.13;5015961;28;20030;-74
2022/01/01 00:06:56;;;;;;;29.48;19.45;;;;;;;11.28;100.00;100679.97;5015899;28;20024;-74
2022/01/01 00:09:21;;;;;;;34.85;20.75;;;;;;;11.28;100.00;100669.28;5015797;28;20018;-75
2022/01/01 00:11:47;;;;;;;32.33;20.20;;;;;;;11.18;100.00;100675.78;5014483;28;20022;-75
2022/01/01 00:14:12;;;;;;;34.13;19.98;;;;;;;11.24;100.00;100680.97;5015807;28;20471;-76
2022/01/01 00:16:37;;;;;;;34.78;21.10;;;;;;;11.18;100.00;100673.13;5015766;28;20030;-74
2022/01/01 00:19:03;;;;;;;34.20;21.35;;;;;;;11.20;100.00;100681.97;5015538;28;20026;-75
2022/01/01 00:21:28;;;;;;;33.58;19.77;;;;;;;11.14;100.00;100684.78;5015631;28;20475;-75
2022/01/01 00:23:53;;;;;;;34.70;20.80;;;;;;;11.15;100.00;100675.88;5014372;28;20541;-74
2022/01/01 00:26:19;;;;;;;33.05;19.90;;;;;;;11.19;100.00;100682.88;5015698;28;20368;-74
2022/01/01 00:28:44;;;;;;;35.25;20.63;;;;;;;11.21;100.00;100685.53;5015649;28;20068;-74
2022/01/01 00:31:10;;;;;;;34.85;19.85;;;;;;;11.24;100.00;100675.63;5015387;28;20022;-74
2022/01/01 00:33:35;;;;;;;41.47;20.23;;;;;;;11.19;100.00;100680.19;5015338;28;20049;-74
2022/01/01 00:36:01;;;;;;;33.97;19.77;;;;;;;11.11;100.00;100666.16;5014005;28;20536;-75
2022/01/01 00:38:26;;;;;;;37.42;19.80;;;;;;;11.13;100.00;100667.88;5015318;28;20022;-74
2022/01/01 00:40:52;;;;;;;32.65;19.65;;;;;;;11.08;100.00;100661.78;5014011;28;20556;-74
2022/01/01 00:43:17;;;;;;;35.97;19.30;;;;;;;11.14;100.00;100661.63;5015526;28;20063;-74
2022/01/01 00:45:42;;;;;;;32.05;19.63;;;;;;;11.13;100.00;100664.34;5015457;28;20367;-74
2022/01/01 00:48:08;;;;;;;40.88;20.27;;;;;;;11.14;100.00;100674.09;5015251;28;20151;-75
2022/01/01 00:50:33;;;;;;;31.58;18.85;;;;;;;11.12;100.00;100686.63;5015171;28;20049;-74
2022/01/01 00:52:59;;;;;;;41.33;20.02;;;;;;;11.17;100.00;100684.72;5016498;28;20026;-74
2022/01/01 00:55:24;;;;;;;41.50;19.73;;;;;;;11.14;100.00;100688.34;5013970;28;20025;-74
2022/01/01 00:57:49;;;;;;;33.53;19.40;;;;;;;11.20;100.00;100694.44;5015111;28;20103;-74
2022/01/01 01:00:15;;;;;;;34.05;20.25;;;;;;;11.15;100.00;100686.56;5042069;22;20462;-73
2022/01/01 01:02:40;;;;;;;33.28;19.15;;;;;;;11.24;100.00;100704.13;5034178;28;20029;-73
2022/01/01 01:05:06;;;;;;;35.03;18.40;;;;;;;11.21;100.00;100697.06;5034404;28;20048;-73
2022/01/01 01:07:31;;;;;;;31.30;17.98;;;;;;;11.22;100.00;100704.19;5034109;28;20505;-73
2022/01/01 01:09:56;;;;;;;32.28;17.95;;;;;;;11.19;100.00;100714.94;5033126;28;20064;-73
2022/01/01 01:12:26;;;;;;;31.00;18.60;;;;;;;11.21;100.00;100715.78;5034014;28;20036;-73
2022/01/01 01:14:52;;;;;;;34.03;18.95;;;;;;;11.15;100.00;100714.16;5033938;28;20036;-73
2022/01/01 01:17:17;;;;;;;37.03;19.00;;;;;;;11.21;100.00;100713.09;5032924;28;20053;-72
2022/01/01 01:19:43;;;;;;;35.03;17.88;;;;;;;11.19;100.00;100728.31;5033752;28;20066;-73
2022/01/01 01:22:08;;;;;;;35.05;18.85;;;;;;;11.19;100.00;100725.63;5033813;28;20097;-73
2022/01/01 01:24:34;;;;;;;38.30;18.40;;;;;;;11.18;100.00;100729.25;5034162;28;20025;-73
2022/01/01 01:27:02;;;;;;;30.45;18.88;;;;;;;11.25;100.00;100728.16;5033865;28;20126;-73
2022/01/01 01:29:30;;;;;;;35.08;18.50;;;;;;;11.28;100.00;100714.72;5033674;28;20018;-73
2022/01/01 01:31:55;;;;;;;32.33;18.75;;;;;;;11.13;100.00;100725.81;5033659;28;20033;-73
2022/01/01 01:34:21;;;;;;;32.63;18.95;;;;;;;11.22;100.00;100714.88;5033753;28;20029;-73
2022/01/01 01:36:46;;;;;;;30.17;17.00;;;;;;;11.28;100.00;100725.44;5032002;28;20021;-73
2022/01/01 01:39:11;;;;;;;28.40;17.55;;;;;;;11.21;100.00;100728.28;5033364;28;20033;-73
2022/01/01 01:41:37;;;;;;;32.60;18.48;;;;;;;11.27;100.00;100726.31;5032009;28;20060;-72
2022/01/01 01:44:30;;;;;;;34.92;18.00;;;;;;;11.20;100.00;100731.88;5033513;28;20053;-72
2022/01/01 01:46:56;;;;;;;31.90;17.30;;;;;;;11.25;100.00;100736.19;5033570;28;20033;-72
2022/01/01 01:49:22;;;;;;;33.42;18.48;;;;;;;11.29;100.00;100739.63;5033247;28;20104;-72
2022/01/01 01:51:48;;;;;;;34.97;19.05;;;;;;;11.21;100.00;100733.63;5033341;28;20109;-72
2022/01/01 01:54:14;;;;;;;44.28;23.45;;;;;;;11.20;100.00;100738.09;5033072;28;20037;-72
2022/01/01 01:56:39;;;;;;;42.20;25.80;;;;;;;11.23;100.00;100742.50;5033332;28;20344;-72
2022/01/01 01:59:05;;;;;;;34.22;20.55;;;;;;;11.21;100.00;100749.69;5033131;28;20045;-72
2022/01/01 02:01:30;;;;;;;35.22;19.45;;;;;;;11.23;100.00;100748.72;5032896;28;20080;-72
2022/01/01 02:03:57;;;;;;;35.05;19.35;;;;;;;11.18;100.00;100751.50;5032936;28;20035;-72
2022/01/01 02:06:24;;;;;;;31.45;18.15;;;;;;;11.16;100.00;100752.44;5032902;28;20116;-72
2022/01/01 02:08:51;;;;;;;36.53;18.90;;;;;;;11.27;100.00;100750.38;5031444;28;20410;-72
2022/01/01 02:11:21;;;;;;;33.85;19.20;;;;;;;11.21;100.00;100749.69;5033200;28;20364;-72
2022/01/01 02:18:49;;;;;;;36.75;19.98;;;;;;;11.12;100.00;100764.13;5033398;28;20025;-72
2022/01/01 02:21:15;;;;;;;38.38;19.17;;;;;;;11.19;100.00;100768.41;5032558;28;20386;-72
2022/01/01 02:23:43;;;;;;;39.13;20.33;;;;;;;11.18;100.00;100758.66;5032696;28;20021;-72
2022/01/01 02:26:11;;;;;;;37.53;19.38;;;;;;;11.25;100.00;100754.91;5032829;28;20018;-73
2022/01/01 02:28:44;;;;;;;36.83;19.85;;;;;;;11.15;100.00;100751.59;5031316;28;20025;-72
2022/01/01 02:31:10;;;;;;;37.95;20.33;;;;;;;11.17;100.00;100757.78;5032699;28;20029;-72
2022/01/01 02:33:39;;;;;;;37.83;20.15;;;;;;;11.15;100.00;100764.94;5032512;28;20018;-72
2022/01/01 02:36:05;;;;;;;34.58;18.10;;;;;;;11.12;100.00;100761.47;5032552;28;20032;-72
2022/01/01 02:38:35;;;;;;;33.38;19.20;;;;;;;11.18;100.00;100750.63;5032693;28;20021;-72
2022/01/01 02:41:01;;;;;;;37.08;19.50;;;;;;;11.17;100.00;100764.91;5032365;28;20546;-72
2022/01/01 02:43:27;;;;;;;30.63;17.38;;;;;;;11.20;100.00;100748.78;5032520;28;20021;-72
2022/01/01 02:45:53;;;;;;;36.88;18.63;;;;;;;11.12;100.00;100757.00;5032524;28;20048;-72
2022/01/01 02:48:19;;;;;;;30.63;17.23;;;;;;;11.11;100.00;100754.34;5031105;28;20033;-73
2022/01/01 02:50:44;;;;;;;34.38;19.02;;;;;;;11.08;100.00;100759.78;5035318;28;20025;-72
2022/01/01 02:53:12;;;;;;;32.40;17.55;;;;;;;11.20;100.00;100764.84;5036884;28;20018;-72
2022/01/01 02:55:37;;;;;;;36.70;17.30;;;;;;;11.17;100.00;100762.22;5036465;28;20029;-72
2022/01/01 02:58:04;;;;;;;34.35;17.98;;;;;;;11.13;100.00;100750.72;5036389;28;20396;-72
2022/01/01 03:00:29;;;;;;;36.05;17.10;;;;;;;11.14;100.00;100759.63;5036255;28;20033;-72
2022/01/01 03:02:55;;;;;;;31.60;17.10;;;;;;;11.10;100.00;100757.97;5036547;28;20083;-73
2022/01/01 03:05:20;;;;;;;30.60;16.98;;;;;;;11.22;100.00;100752.31;5036408;28;20036;-72
2022/01/01 03:07:45;;;;;;;34.83;17.13;;;;;;;11.14;100.00;100754.28;5036515;28;20029;-72
2022/01/01 03:10:11;;;;;;;30.17;15.95;;;;;;;11.23;100.00;100750.50;5036307;28;20025;-72
2022/01/01 03:12:36;;;;;;;30.88;16.27;;;;;;;11.20;100.00;100759.47;5036655;28;20013;-73
2022/01/01 03:15:01;;;;;;;29.33;16.13;;;;;;;11.24;100.00;100755.81;5036409;28;20044;-72
2022/01/01 03:17:27;;;;;;;35.35;15.85;;;;;;;11.15;100.00;100764.06;5036376;28;20448;-73
2022/01/01 03:19:52;;;;;;;35.70;16.77;;;;;;;11.19;100.00;100763.06;5036106;28;20030;-72
2022/01/01 03:22:17;;;;;;;35.70;16.38;;;;;;;11.12;100.00;100767.69;5036101;28;20095;-72
2022/01/01 03:24:42;;;;;;;35.47;16.33;;;;;;;11.08;100.00;100762.47;5034710;28;20037;-72
2022/01/01 03:27:08;;;;;;;29.23;16.23;;;;;;;11.17;100.00;100762.22;5036471;28;20025;-72
2022/01/01 03:29:33;;;;;;;33.75;17.58;;;;;;;11.12;100.00;100767.69;5034605;28;20033;-72
2022/01/01 03:31:59;;;;;;;31.35;16.67;;;;;;;11.10;100.00;100763.31;5035749;28;20029;-72
2022/01/01 03:34:24;;;;;;;31.00;18.25;;;;;;;11.06;100.00;100757.13;5035873;28;20493;-72
2022/01/01 03:36:50;;;;;;;35.88;17.98;;;;;;;11.08;100.00;100760.66;5034430;28;20021;-72
2022/01/01 03:39:15;;;;;;;33.00;17.63;;;;;;;11.13;100.00;100774.78;5035981;28;20017;-72
2022/01/01 03:41:40;;;;;;;45.30;17.13;;;;;;;11.10;100.00;100774.00;5035601;28;20430;-73
2022/01/01 03:44:06;;;;;;;32.65;17.35;;;;;;;11.06;100.00;100768.72;5035854;28;20026;-72
2022/01/01 03:46:31;;;;;;;38.10;18.17;;;;;;;11.03;100.00;100767.94;5035727;28;20021;-72
2022/01/01 03:48:56;;;;;;;40.42;18.08;;;;;;;11.07;100.00;100780.28;5035453;28;20033;-72
2022/01/01 03:51:22;;;;;;;36.00;18.45;;;;;;;11.10;100.00;100776.66;5035391;28;20057;-72
2022/01/01 03:53:47;;;;;;;40.10;18.58;;;;;;;11.09;100.00;100788.25;5035252;28;20075;-72
2022/01/01 03:56:14;;;;;;;39.60;18.30;;;;;;;11.10;100.00;100790.91;5034004;28;20040;-72
2022/01/01 03:58:40;;;;;;;36.83;17.67;;;;;;;10.98;100.00;100786.72;5035579;28;20033;-72
2022/01/01 04:01:05;;;;;;;37.80;17.48;;;;;;;11.06;100.00;100782.06;5034561;28;20087;-72
2022/01/01 04:03:30;;;;;;;43.65;17.27;;;;;;;11.13;100.00;100780.13;5035177;28;20018;-72
2022/01/01 04:05:55;;;;;;;39.20;18.58;;;;;;;11.06;100.00;100779.41;5033820;28;20037;-72
2022/01/01 04:08:21;;;;;;;36.20;19.15;;;;;;;11.01;100.00;100777.75;5035079;28;20017;-72
2022/01/01 04:10:46;;;;;;;41.13;18.90;;;;;;;11.00;100.00;100790.25;5034901;28;20025;-72
2022/01/01 04:13:12;;;;;;;41.90;18.38;;;;;;;10.95;100.00;100792.16;5034943;28;20080;-72
2022/01/01 04:15:39;;;;;;;42.28;20.92;;;;;;;10.97;100.00;100784.97;5035033;28;20108;-72
2022/01/01 04:18:13;;;;;;;33.83;19.90;;;;;;;10.96;100.00;100775.19;5034923;28;20025;-73
2022/01/01 04:20:44;;;;;;;42.28;19.05;;;;;;;11.03;100.00;100789.31;5035287;28;20112;-72
2022/01/01 04:23:10;;;;;;;44.63;21.73;;;;;;;10.95;100.00;100781.47;5035324;28;20067;-72
2022/01/01 04:25:37;;;;;;;41.17;19.25;;;;;;;11.00;100.00;100784.91;5035099;28;20098;-72
2022/01/01 04:28:03;;;;;;;42.92;19.60;;;;;;;11.12;100.00;100780.16;5034739;28;20175;-72
2022/01/01 04:30:31;;;;;;;36.97;20.50;;;;;;;10.98;100.00;100786.72;5033209;28;20048;-72
2022/01/01 04:32:56;;;;;;;40.97;20.23;;;;;;;11.02;100.00;100791.09;5034730;28;20029;-72
2022/01/01 04:35:22;;;;;;;44.38;21.52;;;;;;;11.00;100.00;100786.69;5034471;28;20033;-72
2022/01/01 04:37:48;;;;;;;38.75;20.42;;;;;;;10.95;100.00;100794.84;5034538;28;20483;-72
2022/01/01 04:40:13;;;;;;;42.67;21.08;;;;;;;11.01;100.00;100792.00;5034888;28;20040;-72
2022/01/01 04:42:39;;;;;;;45.85;21.00;;;;;;;10.91;100.00;100791.34;5034441;28;20479;-72
2022/01/01 04:45:05;;;;;;;41.85;20.63;;;;;;;11.09;100.00;100790.94;5033048;28;20029;-72
2022/01/01 04:47:30;;;;;;;36.90;21.77;;;;;;;10.95;100.00;100786.81;5033146;28;20076;-73
2022/01/01 04:49:55;;;;;;;48.05;21.23;;;;;;;10.93;100.00;100788.63;5033004;28;20025;-72
2022/01/01 04:52:21;;;;;;;46.85;22.80;;;;;;;10.93;100.00;100780.59;5034243;28;20039;-72
2022/01/01 04:54:47;;;;;;;52.15;22.67;;;;;;;10.99;100.00;100791.16;5034571;28;20037;-72
2022/01/01 04:57:13;;;;;;;46.67;23.45;;;;;;;10.97;100.00;100778.75;5034299;28;20045;-72
2022/01/01 04:59:41;;;;;;;42.20;22.67;;;;;;;10.91;100.00;100771.75;5034271;28;20073;-73
2022/01/01 05:02:07;;;;;;;50.90;24.60;;;;;;;10.96;100.00;100780.53;5034304;28;20367;-72
2022/01/01 05:04:33;;;;;;;47.80;22.55;;;;;;;11.00;100.00;100784.91;5034215;28;20039;-72
2022/01/01 05:06:58;;;;;;;46.65;21.92;;;;;;;11.10;100.00;100784.69;5034110;28;20030;-72
2022/01/01 05:09:27;;;;;;;44.45;22.27;;;;;;;11.02;100.00;100783.06;5034053;28;20048;-72
2022/01/01 05:11:53;;;;;;;51.10;22.80;;;;;;;10.95;100.00;100787.66;5033330;28;20024;-72
2022/01/01 05:14:19;;;;;;;50.75;24.10;;;;;;;10.92;100.00;100795.78;5034078;28;20104;-72
2022/01/01 05:16:45;;;;;;;51.25;23.63;;;;;;;10.99;100.00;100801.84;5034009;28;20445;-72
2022/01/01 05:19:10;;;;;;;51.60;22.45;;;;;;;10.94;100.00;100785.03;5032528;28;20026;-72
2022/01/01 05:21:36;;;;;;;48.40;22.52;;;;;;;10.99;100.00;100804.53;5034078;28;20056;-72
2022/01/01 05:24:04;;;;;;;52.30;22.67;;;;;;;10.96;100.00;100804.59;5032476;28;20346;-73
2022/01/01 05:26:31;;;;;;;51.42;23.58;;;;;;;10.90;100.00;100797.59;5033733;28;20032;-72
2022/01/01 05:28:56;;;;;;;48.72;22.40;;;;;;;10.90;100.00;100805.59;5033709;28;20025;-72
2022/01/01 05:31:22;;;;;;;47.70;21.88;;;;;;;11.01;100.00;100799.13;5033722;28;20029;-72
2022/01/01 05:33:48;;;;;;;45.83;21.63;;;;;;;10.93;100.00;100797.53;5034853;28;20025;-73
2022/01/01 05:36:14;;;;;;;38.67;20.52;;;;;;;10.94;100.00;100803.75;5033971;28;20057;-72
2022/01/01 05:38:44;;;;;;;41.15;20.60;;;;;;;10.92;100.00;100808.25;5033826;28;20041;-72
2022/01/01 05:41:09;;;;;;;51.10;21.33;;;;;;;10.97;100.00;100817.03;5033612;28;20078;-72
2022/01/01 05:43:35;;;;;;;52.55;25.80;;;;;;;10.83;100.00;100820.91;5033594;28;20100;-72
2022/01/01 05:46:01;;;;;;;42.08;20.30;;;;;;;11.04;100.00;100824.00;5033492;28;20092;-73
2022/01/01 05:48:27;;;;;;;47.03;20.05;;;;;;;11.00;100.00;100816.97;5033372;28;20025;-72
2022/01/01 05:50:52;;;;;;;42.97;20.00;;;;;;;10.90;100.00;100826.13;5033139;28;20433;-72
2022/01/01 05:53:19;;;;;;;38.15;19.25;;;;;;;10.93;100.00;100828.69;5033233;28;20036;-72
2022/01/01 05:55:45;;;;;;;44.20;19.88;;;;;;;10.91;100.00;100833.19;5033438;28;20033;-73
2022/01/01 05:58:10;;;;;;;39.70;19.58;;;;;;;10.86;100.00;100833.31;5033202;28;20079;-73
2022/01/01 06:00:36;;;;;;;47.60;18.67;;;;;;;10.96;100.00;100836.66;5032994;28;20052;-72
2022/01/01 06:03:01;;;;;;;42.97;18.58;;;;;;;10.95;100.00;100842.94;5032973;28;20022;-72
2022/01/01 06:05:27;;;;;;;42.75;19.02;;;;;;;10.82;100.00;100851.19;5032888;28;20029;-72
2022/01/01 06:07:54;;;;;;;39.17;18.80;;;;;;;10.89;100.00;100843.06;5033083;28;20025;-72
2022/01/01 06:10:19;;;;;;;39.25;17.65;;;;;;;10.93;100.00;100847.41;5032941;28;20494;-72
2022/01/01 06:12:45;;;;;;;35.08;18.58;;;;;;;10.92;100.00;100851.88;5032778;28;20025;-73
2022/01/01 06:15:10;;;;;;;42.05;18.77;;;;;;;10.88;100.00;100851.97;5033099;28;20029;-73
2022/01/01 06:17:36;;;;;;;42.72;17.98;;;;;;;10.95;100.00;100841.09;5031508;28;20021;-73
2022/01/01 06:20:02;;;;;;;38.85;18.40;;;;;;;10.88;100.00;100846.63;5032696;28;20410;-73
2022/01/01 06:22:27;;;;;;;40.97;19.25;;;;;;;10.88;100.00;100849.28;5031540;28;20043;-73
2022/01/01 06:24:52;;;;;;;38.15;18.83;;;;;;;10.87;100.00;100840.44;5032526;28;20486;-72
2022/01/01 06:27:18;;;;;;;42.35;19.38;;;;;;;10.79;100.00;100847.72;5032733;28;20083;-73
2022/01/01 06:29:43;;;;;;;43.40;19.17;;;;;;;10.86;100.00;100856.47;5032801;28;20029;-73
2022/01/01 06:32:08;;;;;;;38.88;18.92;;;;;;;10.84;100.00;100860.06;5032481;28;20021;-72
2022/01/01 06:34:33;;;;;;;38.05;18.23;;;;;;;10.87;100.00;100856.47;5032697;28;20034;-72
2022/01/01 06:36:59;;;;;;;39.10;18.73;;;;;;;10.84;100.00;100861.88;5032719;28;20175;-72
2022/01/01 06:39:24;;;;;;;40.38;18.40;;;;;;;10.97;100.00;100853.56;5032484;28;20080;-72
2022/01/01 06:41:49;;;;;;;39.40;18.48;;;;;;;10.96;100.00;100855.34;5032523;28;20033;-72
2022/01/01 06:44:14;;;;;;;39.67;17.95;;;;;;;10.88;100.00;100838.59;5032635;28;20018;-73
2022/01/01 06:46:40;;;;;;;39.30;18.58;;;;;;;10.84;100.00;100841.38;5031142;28;20029;-72
2022/01/01 06:49:05;;;;;;;42.08;18.35;;;;;;;10.94;100.00;100839.38;5033013;28;20030;-73
2022/01/01 06:51:32;;;;;;;43.83;18.58;;;;;;;10.82;100.00;100840.50;5032978;28;20036;-72
2022/01/01 06:53:57;;;;;;;41.17;18.45;;;;;;;10.77;100.00;100842.41;5032774;28;20021;-73
2022/01/01 06:56:23;;;;;;;39.97;18.38;;;;;;;10.77;100.00;100849.56;5032491;28;20044;-72
2022/01/01 06:58:48;;;;;;;37.17;17.55;;;;;;;10.81;100.00;100854.78;5032417;28;20402;-72
2022/01/01 07:01:13;;;;;;;39.83;18.50;;;;;;;10.81;100.00;100853.91;5053603;22;20041;-84
2022/01/01 07:03:39;;;;;;;39.20;18.17;;;;;;;10.83;100.00;100857.41;5033360;28;20022;-83
2022/01/01 07:06:04;;;;;;;42.42;18.98;;;;;;;10.84;100.00;100857.41;5034740;28;20474;-82
2022/01/01 07:08:29;;;;;;;36.13;18.10;;;;;;;10.82;100.00;100866.38;5035276;28;20025;-82
2022/01/01 07:10:54;;;;;;;40.70;18.75;;;;;;;10.73;100.00;100867.44;5034694;28;20039;-84
2022/01/01 07:13:20;;;;;;;39.92;18.65;;;;;;;10.81;100.00;100864.59;5035669;28;20120;-84
2022/01/01 07:15:45;;;;;;;45.80;19.90;;;;;;;10.73;100.00;100867.44;5033698;28;20071;-86
2022/01/01 07:18:11;;;;;;;42.75;18.73;;;;;;;10.75;100.00;100883.41;5034163;28;20022;-85
2022/01/01 07:20:36;;;;;;;39.05;18.98;;;;;;;10.76;100.00;100878.06;5034630;28;20525;-84
2022/01/01 07:23:02;;;;;;;44.70;19.50;;;;;;;10.69;100.00;100874.66;5035004;28;20112;-84
2022/01/01 07:25:30;;;;;;;44.90;19.80;;;;;;;10.68;100.00;100866.66;5036457;28;20025;-85
2022/01/01 07:27:56;;;;;;;37.88;18.05;;;;;;;10.67;100.00;100860.41;5033278;28;20386;-84
2022/01/01 07:30:21;;;;;;;45.35;19.10;;;;;;;10.67;100.00;100872.91;5034241;28;20481;-85
2022/01/01 07:32:48;;;;;;;40.80;18.80;;;;;;;10.70;100.00;100883.50;5032631;28;20030;-85
2022/01/01 07:35:16;;;;;;;39.60;19.17;;;;;;;10.64;100.00;100889.00;5032581;28;20028;-84
2022/01/01 07:37:42;;;;;;;42.42;19.30;;;;;;;10.70;100.00;100883.50;5035606;28;20018;-84
2022/01/01 07:40:12;;;;;;;40.75;18.35;;;;;;;10.68;100.00;100882.66;5035342;28;20033;-84
2022/01/01 07:42:43;;;;;;;38.92;17.83;;;;;;;10.76;100.00;100893.19;5035714;28;20359;-86
2022/01/01 07:45:09;;;;;;;43.97;19.10;;;;;;;10.76;100.00;100896.75;5035836;28;20497;-85
2022/01/01 07:47:35;;;;;;;37.42;19.38;;;;;;;10.77;100.00;100897.63;5038302;28;20382;-85
2022/01/01 07:50:01;;;;;;;39.35;17.83;;;;;;;10.73;100.00;100902.16;5038848;28;20017;-84
2022/01/01 07:52:26;;;;;;;36.72;17.08;;;;;;;10.74;100.00;100906.59;5037073;28;20528;-85
2022/01/01 07:54:51;;;;;;;38.10;18.33;;;;;;;10.76;100.00;100903.88;5037326;28;20044;-84
2022/01/01 07:57:17;;;;;;;40.28;17.17;;;;;;;10.71;100.00;100917.34;5035540;28;20033;-85
2022/01/01 07:59:42;;;;;;;35.95;16.75;;;;;;;10.71;100.00;100912.00;5035952;28;20422;-84
2022/01/01 08:02:08;;;;;;;38.40;16.88;;;;;;;10.66;100.00;100924.56;5038592;28;20045;-84
2022/01/01 08:04:34;;;;;;;43.05;17.60;;;;;;;10.65;100.00;100917.44;5040069;28;20072;-84
2022/01/01 08:07:01;;;;;;;34.42;16.90;;;;;;;10.71;100.00;100917.34;5037027;28;20025;-84
2022/01/01 08:09:27;;;;;;;40.08;16.38;;;;;;;10.69;100.00;100914.72;5037454;28;20056;-84
2022/01/01 08:11:54;;;;;;;38.83;17.13;;;;;;;10.75;100.00;100908.34;5037535;28;20041;-84
2022/01/01 08:14:19;;;;;;;37.25;16.85;;;;;;;10.75;100.00;100907.44;5035518;28;20021;-83
2022/01/01 08:16:56;;;;;;;38.63;15.38;;;;;;;10.72;100.00;100908.44;5037065;28;20024;-84
2022/01/01 08:19:21;;;;;;;36.92;15.48;;;;;;;10.70;100.00;100899.53;5036384;28;20061;-85
2022/01/01 08:21:46;;;;;;;33.63;15.20;;;;;;;10.66;100.00;100903.19;5039011;28;20041;-84
2022/01/01 08:24:11;;;;;;;30.83;15.73;;;;;;;10.71;100.00;100906.66;5037695;28;20041;-85
2022/01/01 08:26:37;;;;;;;29.08;14.85;;;;;;;10.69;100.00;100908.47;5035662;28;20072;-84
2022/01/01 08:29:02;;;;;;;32.97;15.55;;;;;;;10.70;100.00;100910.22;5035645;28;20029;-84
2022/01/01 08:31:27;;;;;;;32.40;15.68;;;;;;;10.73;100.00;100912.84;5037107;28;20030;-84
2022/01/01 08:33:53;;;;;;;36.45;16.70;;;;;;;10.71;100.00;100920.00;5036009;28;20116;-84
2022/01/01 08:36:18;;;;;;;35.70;15.45;;;;;;;10.75;100.00;100915.47;5035979;28;20033;-85
2022/01/01 08:38:43;;;;;;;29.20;15.55;;;;;;;10.81;100.00;100918.91;5034877;28;20036;-86
2022/01/01 08:41:09;;;;;;;34.33;14.93;;;;;;;10.77;100.00;100922.53;5034758;28;20029;-86
2022/01/01 08:43:34;;;;;;;30.55;14.35;;;;;;;10.81;100.00;100924.25;5035946;28;20021;-85
2022/01/01 08:45:59;;;;;;;30.58;14.25;;;;;;;10.82;100.00;100919.78;5035831;28;20034;-88
2022/01/01 08:48:25;;;;;;;29.45;13.68;;;;;;;10.83;100.00;100921.53;5035515;28;20032;-88
2022/01/01 08:50:50;;;;;;;27.80;13.15;;;;;;;10.83;100.00;100921.53;5034056;28;20021;-85
2022/01/01 08:53:15;;;;;;;28.20;12.85;;;;;;;10.85;100.00;100922.38;5034189;28;20017;-87
2022/01/01 08:55:41;;;;;;;28.45;13.27;;;;;;;10.83;100.00;100914.41;5034954;28;20033;-86
2022/01/01 08:58:06;;;;;;;32.25;12.55;;;;;;;10.90;100.00;100908.94;5035567;28;20082;-86
2022/01/01 09:00:32;;;;;;;26.23;12.20;;;;;;;10.95;100.00;100915.06;5034467;28;20029;-87
2022/01/01 09:02:57;;;;;;;27.52;12.55;;;;;;;10.98;100.00;100909.63;5035452;28;20021;-86
2022/01/01 09:05:25;;;;;;;30.63;11.82;;;;;;;10.98;100.00;100912.31;5034074;28;20025;-86
2022/01/01 09:07:53;;;;;;;25.35;12.65;;;;;;;11.00;100.00;100913.19;5035209;28;20033;-85
2022/01/01 09:10:25;;;;;;;26.63;12.43;;;;;;;10.96;100.00;100911.47;5034071;28;20108;-87
2022/01/01 09:12:50;;;;;;;27.00;11.30;;;;;;;11.05;100.00;100916.63;5033695;28;20029;-85
2022/01/01 09:15:27;;;;;;;32.45;11.80;;;;;;;11.06;100.00;100915.69;5033876;28;20075;-85
2022/01/01 09:17:56;;;;;;;27.08;11.73;;;;;;;11.03;100.00;100918.44;5034723;28;20033;-86
2022/01/01 09:20:21;;;;;;;24.27;11.48;;;;;;;11.00;100.00;100918.53;5034815;28;20474;-86
2022/01/01 09:22:46;;;;;;;25.80;11.35;;;;;;;11.08;100.00;100923.66;5033760;28;20037;-86
2022/01/01 09:25:33;;;;;;;22.77;11.50;;;;;;;11.06;100.00;100926.38;5033619;28;20132;-86
2022/01/01 09:27:59;;;;;;;26.40;11.65;;;;;;;11.02;100.00;100922.03;5033477;28;20053;-86
2022/01/01 09:30:24;;;;;;;24.95;9.48;;;;;;;11.06;100.00;100925.50;5033190;28;20063;-86
2022/01/01 09:32:52;;;;;;;21.98;10.98;;;;;;;11.05;100.00;100931.78;5034443;28;20032;-86
2022/01/01 09:35:18;;;;;;;24.98;11.55;;;;;;;11.09;100.00;100940.59;5033247;28;20060;-86
2022/01/01 09:37:43;;;;;;;24.90;10.93;;;;;;;11.23;100.00;100945.66;5034742;28;20026;-86
2022/01/01 09:40:21;;;;;;;25.13;10.82;;;;;;;11.19;100.00;100944.81;5033317;28;20028;-86
2022/01/01 09:42:47;;;;;;;26.20;10.73;;;;;;;11.20;100.00;100938.56;5034204;28;20017;-87
2022/01/01 09:45:38;;;;;;;26.40;10.68;;;;;;;11.20;100.00;100935.91;5035073;28;20056;-86
2022/01/01 09:48:19;;;;;;;24.67;10.95;;;;;;;11.17;100.00;100941.31;5032909;28;20037;-87
2022/01/01 09:51:00;;;;;;;20.75;9.77;;;;;;;11.20;100.00;100935.91;5034888;28;20114;-86
2022/01/01 09:53:27;;;;;;;21.60;10.13;;;;;;;11.23;100.00;100946.53;5033621;28;20055;-86
2022/01/01 09:56:06;;;;;;;23.42;9.75;;;;;;;11.36;100.00;100946.25;5033143;28;20029;-88
2022/01/01 09:59:13;;;;;;;22.88;9.98;;;;;;;11.46;100.00;100946.91;5033484;28;20025;-89
2022/01/01 10:01:50;;;;;;;25.38;9.55;;;;;;;11.59;100.00;100942.16;5033030;28;20044;-87
2022/01/01 10:04:24;;;;;;;24.50;8.98;;;;;;;11.54;100.00;100936.94;5033236;28;20044;-87
2022/01/01 10:07:31;;;;;;;22.70;8.52;;;;;;;11.61;100.00;100934.97;5034257;28;20446;-87
2022/01/01 10:10:32;;;;;;;17.17;7.55;;;;;;;11.66;100.00;100933.06;5013448;28;20037;-87
2022/01/01 10:13:11;;;;;;;17.30;8.00;;;;;;;11.72;100.00;100938.28;5032715;28;20475;-86
2022/01/01 10:15:48;;;;;;;19.52;8.63;;;;;;;11.80;100.00;100934.53;5033282;28;20041;-86
2022/01/01 10:18:42;;;;;;;19.17;8.13;;;;;;;11.72;100.00;100938.28;5032886;28;20064;-88
2022/01/01 10:21:58;;;;;;;17.73;7.80;;;;;;;11.70;100.00;100939.25;5033059;28;20037;-89
2022/01/01 10:30:24;;;;;;;17.45;7.57;;;;;;;11.88;100.00;100940.56;5034346;28;20497;-89
2022/01/01 10:33:11;;;;;;;20.05;8.07;;;;;;;11.83;100.00;100939.78;5033402;28;20033;-88
2022/01/01 10:36:10;;;;;;;17.73;7.93;;;;;;;11.85;100.00;100946.00;5032155;28;20146;-89
2022/01/01 10:38:35;;;;;;;16.90;6.40;;;;;;;11.78;100.00;100936.34;5031862;28;20143;-89
2022/01/01 10:41:16;;;;;;;16.55;7.60;;;;;;;11.85;100.00;100932.63;5032431;28;20061;-88
2022/01/01 10:44:07;;;;;;;17.83;6.95;;;;;;;11.90;100.00;100928.03;5032282;28;20069;-87
2022/01/01 10:47:16;;;;;;;14.65;6.35;;;;;;;11.90;100.00;100930.72;5033537;28;20071;-88
2022/01/01 10:50:17;;;;;;;15.48;6.63;;;;;;;11.94;100.00;100921.69;5032030;28;20025;-88
2022/01/01 10:52:51;;;;;;;16.80;5.95;;;;;;;11.99;100.00;100918.00;5030217;28;20038;-88
2022/01/01 10:56:11;;;;;;;17.55;6.65;;;;;;;11.95;100.00;100920.78;5032922;28;20033;-88
2022/01/01 10:58:23;;;;;;;17.85;5.90;;;;;;;11.93;100.00;100919.91;5030494;28;20033;-88
2022/01/01 11:00:51;;;;;;;15.13;6.40;;;;;;;12.04;100.00;100916.06;5031765;28;20036;-87
2022/01/01 11:03:23;;;;;;;17.27;6.47;;;;;;;12.05;100.00;100917.84;5032910;28;20014;-88
2022/01/01 11:06:12;;;;;;;13.38;5.88;;;;;;;12.06;100.00;100916.94;5032934;28;20034;-88
2022/01/01 11:11:46;;;;;;;13.13;6.18;;;;;;;12.04;100.00;100926.78;5041780;22;20167;-75
2022/01/01 11:14:12;;;;;;;13.57;5.55;;;;;;;12.11;100.00;100928.38;5036546;28;20300;-75
2022/01/01 11:16:38;;;;;;;15.85;6.75;;;;;;;12.08;100.00;100928.47;5035357;28;20401;-76
2022/01/01 11:19:04;;;;;;;17.17;5.65;;;;;;;12.18;100.00;100923.78;5036501;28;20022;-75
2022/01/01 11:21:30;;;;;;;15.68;5.90;;;;;;;12.16;100.00;100925.63;5036567;28;20115;-75